Terminal Aerodrome Forecast
Issued by NWS Sioux Falls, SD

Home | Current Version | Previous Version | Text Only | Print | Product List | Glossary Off
Versions: 1 2 3 4 5 6 7 8 9 10 11 12 13 14 15

000
FTUS43 KFSD 141700
TAFHON
TAF
KHON 141720Z 1418/1518 33012KT P6SM BKN060
     FM142000 34015G23KT P6SM SCT060
     FM150100 02010KT P6SM SCT050
     FM150400 VRB03KT P6SM SKC
     FM151000 15008KT P6SM SCT080 SCT150
     FM151500 16014G21KT P6SM SCT080 OVC150=

USA.gov is the U.S. government's official web portal to all federal, state and local government web resources and services.